Time,TemperatureF,DewpointF,PressureIn,WindDirection,WindDirectionDegrees,WindSpeedMPH,WindSpeedGustMPH,Humidity,HourlyPrecipIn,Conditions,Clouds,dailyrainin,SoftwareType,DateUTC
2017-07-23 00:00:00,63.4,56.8,29.78,SSE,153,0.0,0.0,79,0.00,,,0.00,WeatherCatV2.41B14,2017-07-23 04:00:00,
2017-07-23 00:05:00,63.3,56.3,29.78,SSE,152,0.0,0.0,78,0.00,,,0.00,WeatherCatV2.41B14,2017-07-23 04:05:00,
2017-07-23 00:10:00,63.2,55.9,29.77,SSE,153,0.0,0.0,77,0.00,,,0.00,WeatherCatV2.41B14,2017-07-23 04:10:00,
2017-07-23 00:15:00,63.2,55.5,29.77,SSE,153,0.0,0.0,76,0.00,,,0.00,WeatherCatV2.41B14,2017-07-23 04:15:00,
2017-07-23 00:20:00,63.1,55.8,29.78,SSE,152,0.0,0.0,77,0.00,,,0.00,WeatherCatV2.41B14,2017-07-23 04:20:00,
2017-07-23 00:25:00,63.0,55.3,29.78,SSE,152,0.0,0.0,76,0.00,,,0.00,WeatherCatV2.41B14,2017-07-23 04:25:00,
2017-07-23 00:30:00,62.8,55.5,29.78,SSE,152,0.0,0.0,77,0.00,,,0.00,WeatherCatV2.41B14,2017-07-23 04:30:00,
2017-07-23 00:35:00,62.7,55.7,29.78,SSE,153,0.0,0.0,78,0.00,,,0.00,WeatherCatV2.41B14,2017-07-23 04:35:00,
2017-07-23 00:40:00,62.5,54.8,29.78,SSE,153,0.0,0.0,76,0.00,,,0.00,WeatherCatV2.41B14,2017-07-23 04:40:00,
2017-07-23 00:45:00,62.3,54.6,29.79,SSE,153,0.0,0.0,76,0.00,,,0.00,WeatherCatV2.41B14,2017-07-23 04:45:00,
2017-07-23 00:50:00,62.1,54.8,29.78,SSE,152,0.0,0.0,77,0.00,,,0.00,WeatherCatV2.41B14,2017-07-23 04:50:00,
2017-07-23 00:55:00,62.0,54.7,29.78,SSE,153,0.0,0.0,77,0.00,,,0.00,WeatherCatV2.41B14,2017-07-23 04:55:00,
2017-07-23 01:00:00,61.8,54.5,29.78,SSE,152,0.0,0.0,77,0.00,,,0.00,WeatherCatV2.41B14,2017-07-23 05:00:00,
2017-07-23 01:05:00,61.6,54.7,29.78,SSE,152,0.0,0.0,78,0.00,,,0.00,WeatherCatV2.41B14,2017-07-23 05:05:00,
2017-07-23 01:10:00,61.4,54.8,29.78,SSE,153,0.0,0.0,79,0.00,,,0.00,WeatherCatV2.41B14,2017-07-23 05:10:00,
2017-07-23 01:15:00,61.2,55.0,29.78,SSE,153,0.0,0.0,80,0.00,,,0.00,WeatherCatV2.41B14,2017-07-23 05:15:00,
2017-07-23 01:20:00,60.9,54.3,29.79,SSE,152,0.0,0.0,79,0.00,,,0.00,WeatherCatV2.41B14,2017-07-23 05:20:00,
2017-07-23 01:25:00,60.6,54.4,29.79,SSE,152,0.0,0.0,80,0.00,,,0.00,WeatherCatV2.41B14,2017-07-23 05:25:00,
2017-07-23 01:30:00,60.4,54.2,29.79,SSE,153,0.0,0.0,80,0.00,,,0.00,WeatherCatV2.41B14,2017-07-23 05:30:00,
2017-07-23 01:35:00,60.2,52.6,29.79,SSE,153,0.0,0.0,76,0.00,,,0.00,WeatherCatV2.41B14,2017-07-23 05:35:00,
2017-07-23 01:40:00,60.0,53.1,29.79,SSE,153,0.0,0.0,78,0.00,,,0.00,WeatherCatV2.41B14,2017-07-23 05:40:00,
2017-07-23 01:45:00,59.8,54.0,29.79,SSE,153,0.0,0.0,81,0.00,,,0.00,WeatherCatV2.41B14,2017-07-23 05:45:00,
2017-07-23 01:50:00,59.6,53.8,29.78,SSE,153,0.0,0.0,81,0.00,,,0.00,WeatherCatV2.41B14,2017-07-23 05:50:00,
2017-07-23 01:55:00,59.3,53.5,29.78,SSE,153,0.0,0.0,81,0.00,,,0.00,WeatherCatV2.41B14,2017-07-23 05:55:00,
2017-07-23 02:00:00,59.1,52.9,29.78,SSE,152,0.0,0.0,80,0.00,,,0.00,WeatherCatV2.41B14,2017-07-23 06:00:00,
2017-07-23 02:05:00,58.8,52.6,29.78,SSE,153,0.0,0.0,80,0.00,,,0.00,WeatherCatV2.41B14,2017-07-23 06:05:00,
2017-07-23 02:10:00,58.5,53.0,29.78,SSE,153,0.0,0.0,82,0.00,,,0.00,WeatherCatV2.41B14,2017-07-23 06:10:00,
2017-07-23 02:15:00,58.1,53.0,29.78,SSE,152,0.0,0.0,83,0.00,,,0.00,WeatherCatV2.41B14,2017-07-23 06:15:00,
2017-07-23 02:20:00,58.0,52.9,29.78,SSE,152,0.0,0.0,83,0.00,,,0.00,WeatherCatV2.41B14,2017-07-23 06:20:00,
2017-07-23 02:25:00,57.8,53.0,29.79,SSE,153,0.0,0.0,84,0.00,,,0.00,WeatherCatV2.41B14,2017-07-23 06:25:00,
2017-07-23 02:30:00,57.8,53.0,29.78,SSE,153,0.0,0.0,84,0.00,,,0.00,WeatherCatV2.41B14,2017-07-23 06:30:00,
2017-07-23 02:35:00,57.8,53.0,29.79,SSE,152,0.0,0.0,84,0.00,,,0.00,WeatherCatV2.41B14,2017-07-23 06:35:00,
2017-07-23 02:40:00,57.8,53.0,29.79,SSE,153,0.0,1.0,84,0.00,,,0.00,WeatherCatV2.41B14,2017-07-23 06:40:00,
2017-07-23 02:45:00,57.9,53.4,29.78,SSE,153,0.0,0.0,85,0.00,,,0.00,WeatherCatV2.41B14,2017-07-23 06:45:00,
2017-07-23 02:50:00,58.0,53.5,29.78,SSE,152,0.0,0.0,85,0.00,,,0.00,WeatherCatV2.41B14,2017-07-23 06:50:00,
2017-07-23 02:55:00,58.1,53.3,29.78,SSE,153,0.0,0.0,84,0.00,,,0.00,WeatherCatV2.41B14,2017-07-23 06:55:00,
2017-07-23 03:00:00,58.2,53.4,29.78,SSE,152,0.0,0.0,84,0.00,,,0.00,WeatherCatV2.41B14,2017-07-23 07:00:00,
2017-07-23 03:05:00,58.2,53.4,29.78,SSE,153,0.0,0.0,84,0.00,,,0.00,WeatherCatV2.41B14,2017-07-23 07:05:00,
2017-07-23 03:10:00,58.3,53.8,29.78,SSE,153,0.0,0.0,85,0.00,,,0.00,WeatherCatV2.41B14,2017-07-23 07:10:00,
2017-07-23 03:15:00,58.3,53.5,29.78,SSE,152,0.0,1.0,84,0.00,,,0.00,WeatherCatV2.41B14,2017-07-23 07:15:00,
2017-07-23 03:20:00,58.2,53.1,29.78,SSE,153,0.0,0.0,83,0.00,,,0.00,WeatherCatV2.41B14,2017-07-23 07:20:00,
2017-07-23 03:25:00,58.2,53.4,29.78,SSE,153,0.0,0.0,84,0.00,,,0.00,WeatherCatV2.41B14,2017-07-23 07:25:00,
2017-07-23 03:30:00,58.2,53.1,29.78,SSE,153,0.0,0.0,83,0.00,,,0.00,WeatherCatV2.41B14,2017-07-23 07:30:00,
2017-07-23 03:35:00,58.1,53.0,29.78,SSE,152,2.0,2.0,83,0.00,,,0.00,WeatherCatV2.41B14,2017-07-23 07:35:00,
2017-07-23 03:40:00,58.1,52.3,29.78,SSE,153,0.0,0.0,81,0.00,,,0.00,WeatherCatV2.41B14,2017-07-23 07:40:00,
2017-07-23 03:45:00,58.1,51.3,29.78,SSE,161,0.0,2.0,78,0.00,,,0.00,WeatherCatV2.41B14,2017-07-23 07:45:00,
2017-07-23 03:50:00,58.1,52.0,29.78,SSE,161,0.0,0.0,80,0.00,,,0.00,WeatherCatV2.41B14,2017-07-23 07:50:00,
2017-07-23 03:55:00,58.1,52.3,29.78,SSE,161,0.0,0.0,81,0.00,,,0.00,WeatherCatV2.41B14,2017-07-23 07:55:00,
2017-07-23 04:00:00,57.9,52.4,29.79,SSE,161,0.0,0.0,82,0.00,,,0.00,WeatherCatV2.41B14,2017-07-23 08:00:00,
2017-07-23 04:05:00,57.7,51.9,29.79,SSE,161,0.0,0.0,81,0.00,,,0.00,WeatherCatV2.41B14,2017-07-23 08:05:00,
2017-07-23 04:10:00,57.4,51.6,29.79,SSE,161,0.0,1.0,81,0.00,,,0.00,WeatherCatV2.41B14,2017-07-23 08:10:00,
2017-07-23 04:15:00,57.2,51.4,29.80,SSE,161,0.0,0.0,81,0.00,,,0.00,WeatherCatV2.41B14,2017-07-23 08:15:00,
2017-07-23 04:20:00,57.1,51.7,29.80,SSE,161,0.0,0.0,82,0.00,,,0.00,WeatherCatV2.41B14,2017-07-23 08:20:00,
2017-07-23 04:25:00,56.9,51.1,29.80,SSE,161,0.0,0.0,81,0.00,,,0.00,WeatherCatV2.41B14,2017-07-23 08:25:00,
2017-07-23 04:30:00,56.7,50.9,29.80,SSE,161,0.0,0.0,81,0.00,,,0.00,WeatherCatV2.41B14,2017-07-23 08:30:00,
2017-07-23 04:35:00,56.6,50.8,29.80,SSE,161,0.0,0.0,81,0.00,,,0.00,WeatherCatV2.41B14,2017-07-23 08:35:00,
2017-07-23 04:40:00,56.4,51.0,29.80,SSE,161,0.0,0.0,82,0.00,,,0.00,WeatherCatV2.41B14,2017-07-23 08:40:00,
2017-07-23 04:45:00,56.1,50.7,29.80,SSE,161,0.0,0.0,82,0.00,,,0.00,WeatherCatV2.41B14,2017-07-23 08:45:00,
2017-07-23 04:50:00,55.9,50.2,29.81,SSE,161,0.0,0.0,81,0.00,,,0.00,WeatherCatV2.41B14,2017-07-23 08:50:00,
2017-07-23 04:55:00,55.6,50.5,29.81,SSE,161,0.0,0.0,83,0.00,,,0.00,WeatherCatV2.41B14,2017-07-23 08:55:00,
2017-07-23 05:00:00,55.4,50.6,29.82,SSE,161,0.0,0.0,84,0.00,,,0.00,WeatherCatV2.41B14,2017-07-23 09:00:00,
2017-07-23 05:05:00,55.1,50.3,29.82,SSE,161,0.0,0.0,84,0.00,,,0.00,WeatherCatV2.41B14,2017-07-23 09:05:00,
2017-07-23 05:10:00,54.9,50.5,29.82,SSE,161,0.0,0.0,85,0.00,,,0.00,WeatherCatV2.41B14,2017-07-23 09:10:00,
2017-07-23 05:15:00,54.6,49.9,29.82,SSE,161,0.0,0.0,84,0.00,,,0.00,WeatherCatV2.41B14,2017-07-23 09:15:00,
2017-07-23 05:20:00,54.4,50.0,29.83,SSE,161,0.0,0.0,85,0.00,,,0.00,WeatherCatV2.41B14,2017-07-23 09:20:00,
2017-07-23 05:25:00,54.1,50.0,29.83,SSE,161,0.0,0.0,86,0.00,,,0.00,WeatherCatV2.41B14,2017-07-23 09:25:00,
2017-07-23 05:30:00,54.0,49.9,29.83,SSE,161,0.0,0.0,86,0.00,,,0.00,WeatherCatV2.41B14,2017-07-23 09:30:00,
2017-07-23 05:35:00,54.0,49.9,29.83,SSE,161,0.0,0.0,86,0.00,,,0.00,WeatherCatV2.41B14,2017-07-23 09:35:00,
2017-07-23 05:40:00,-999.9,-99.9,29.81,North,-9999,-999.9,0.0,-999,0.00,,,0.00,WeatherCatV2.41B14,2017-07-23 09:40:00,
2017-07-23 05:45:00,-999.9,-99.9,29.81,North,-9999,-999.9,0.0,-999,0.00,,,0.00,WeatherCatV2.41B14,2017-07-23 09:45:00,
2017-07-23 05:50:00,-999.9,-99.9,29.81,North,-9999,-999.9,0.0,-999,0.00,,,0.00,WeatherCatV2.41B14,2017-07-23 09:50:00,
2017-07-23 05:55:00,-999.9,-99.9,29.81,North,-9999,-999.9,0.0,-999,0.00,,,0.00,WeatherCatV2.41B14,2017-07-23 09:55:00,
2017-07-23 06:00:00,-999.9,-99.9,29.82,North,-9999,-999.9,0.0,-999,0.00,,,0.00,WeatherCatV2.41B14,2017-07-23 10:00:00,
2017-07-23 06:05:00,-999.9,-99.9,29.82,North,-9999,-999.9,0.0,-999,0.00,,,0.00,WeatherCatV2.41B14,2017-07-23 10:05:00,
2017-07-23 06:10:00,-999.9,-99.9,29.82,North,-9999,-999.9,0.0,-999,0.00,,,0.00,WeatherCatV2.41B14,2017-07-23 10:10:00,
2017-07-23 06:15:00,-999.9,-99.9,29.82,North,-9999,-999.9,0.0,-999,0.00,,,0.00,WeatherCatV2.41B14,2017-07-23 10:15:00,
2017-07-23 06:20:00,-999.9,-99.9,29.82,North,-9999,-999.9,0.0,-999,0.00,,,0.00,WeatherCatV2.41B14,2017-07-23 10:20:00,
2017-07-23 06:25:00,-999.9,-99.9,29.82,North,-9999,-999.9,0.0,-999,0.00,,,0.00,WeatherCatV2.41B14,2017-07-23 10:25:00,
2017-07-23 06:30:00,-999.9,-99.9,29.83,North,-9999,-999.9,0.0,-999,0.00,,,0.00,WeatherCatV2.41B14,2017-07-23 10:30:00,
2017-07-23 06:35:00,-999.9,-99.9,29.83,North,-9999,-999.9,0.0,-999,0.00,,,0.00,WeatherCatV2.41B14,2017-07-23 10:35:00,
2017-07-23 06:40:00,-999.9,-99.9,29.84,North,-9999,-999.9,0.0,-999,0.00,,,0.00,WeatherCatV2.41B14,2017-07-23 10:40:00,
2017-07-23 06:45:00,-999.9,-99.9,29.83,North,-9999,-999.9,0.0,-999,0.00,,,0.00,WeatherCatV2.41B14,2017-07-23 10:45:00,
2017-07-23 06:50:00,-999.9,-99.9,29.83,North,-9999,-999.9,0.0,-999,0.00,,,0.00,WeatherCatV2.41B14,2017-07-23 10:50:00,
2017-07-23 06:55:00,-999.9,-99.9,29.83,North,-9999,-999.9,0.0,-999,0.00,,,0.00,WeatherCatV2.41B14,2017-07-23 10:55:00,
2017-07-23 07:00:00,-999.9,-99.9,29.83,North,-9999,-999.9,0.0,-999,0.00,,,0.00,WeatherCatV2.41B14,2017-07-23 11:00:00,
2017-07-23 07:05:00,-999.9,-99.9,29.83,North,-9999,-999.9,0.0,-999,0.00,,,0.00,WeatherCatV2.41B14,2017-07-23 11:05:00,
2017-07-23 07:10:00,-999.9,-99.9,29.83,North,-9999,-999.9,0.0,-999,0.00,,,0.00,WeatherCatV2.41B14,2017-07-23 11:10:00,
2017-07-23 07:15:00,-999.9,-99.9,29.84,North,-9999,-999.9,0.0,-999,0.00,,,0.00,WeatherCatV2.41B14,2017-07-23 11:15:00,
2017-07-23 07:20:00,53.0,51.0,29.86,SSE,161,0.0,0.0,93,0.00,,,0.00,WeatherCatV2.41B14,2017-07-23 11:20:00,
2017-07-23 07:25:00,53.1,51.1,29.86,SSE,161,0.0,0.0,93,0.00,,,0.00,WeatherCatV2.41B14,2017-07-23 11:25:00,
2017-07-23 07:30:00,53.3,51.0,29.86,SSE,161,0.0,0.0,92,0.00,,,0.00,WeatherCatV2.41B14,2017-07-23 11:30:00,
2017-07-23 07:35:00,53.5,51.2,29.86,SSE,161,0.0,0.0,92,0.00,,,0.00,WeatherCatV2.41B14,2017-07-23 11:35:00,
2017-07-23 07:40:00,53.9,51.6,29.86,SSE,161,0.0,0.0,92,0.00,,,0.00,WeatherCatV2.41B14,2017-07-23 11:40:00,
2017-07-23 07:45:00,54.3,52.3,29.86,SSE,161,0.0,0.0,93,0.00,,,0.00,WeatherCatV2.41B14,2017-07-23 11:45:00,
2017-07-23 07:50:00,54.7,52.7,29.85,SSE,161,0.0,0.0,93,0.00,,,0.00,WeatherCatV2.41B14,2017-07-23 11:50:00,
2017-07-23 07:55:00,55.2,53.2,29.85,SSE,161,0.0,0.0,93,0.00,,,0.00,WeatherCatV2.41B14,2017-07-23 11:55:00,
2017-07-23 08:00:00,55.5,52.9,29.85,SSE,161,0.0,0.0,91,0.00,,,0.00,WeatherCatV2.41B14,2017-07-23 12:00:00,
2017-07-23 08:05:00,55.7,52.5,29.86,SSE,161,0.0,0.0,89,0.00,,,0.00,WeatherCatV2.41B14,2017-07-23 12:05:00,
2017-07-23 08:10:00,56.0,52.5,29.86,SSE,161,0.0,0.0,88,0.00,,,0.00,WeatherCatV2.41B14,2017-07-23 12:10:00,
2017-07-23 08:15:00,56.3,52.5,29.86,SE,138,0.0,1.0,87,0.00,,,0.00,WeatherCatV2.41B14,2017-07-23 12:15:00,
2017-07-23 08:20:00,56.6,52.8,29.86,SE,138,0.0,0.0,87,0.00,,,0.00,WeatherCatV2.41B14,2017-07-23 12:20:00,
2017-07-23 08:25:00,56.9,52.8,29.86,SE,139,0.0,0.0,86,0.00,,,0.00,WeatherCatV2.41B14,2017-07-23 12:25:00,
2017-07-23 08:30:00,57.3,51.8,29.86,SE,139,0.0,0.0,82,0.00,,,0.00,WeatherCatV2.41B14,2017-07-23 12:30:00,
2017-07-23 08:35:00,57.7,52.2,29.85,SE,139,0.0,0.0,82,0.00,,,0.00,WeatherCatV2.41B14,2017-07-23 12:35:00,
2017-07-23 08:40:00,58.0,52.2,29.85,SE,139,0.0,0.0,81,0.00,,,0.00,WeatherCatV2.41B14,2017-07-23 12:40:00,
2017-07-23 08:45:00,58.2,52.7,29.85,SE,138,0.0,0.0,82,0.00,,,0.00,WeatherCatV2.41B14,2017-07-23 12:45:00,
2017-07-23 08:50:00,58.5,52.0,29.85,SE,139,0.0,0.0,79,0.00,,,0.00,WeatherCatV2.41B14,2017-07-23 12:50:00,
2017-07-23 08:55:00,58.8,53.0,29.85,SE,139,0.0,1.0,81,0.00,,,0.00,WeatherCatV2.41B14,2017-07-23 12:55:00,
2017-07-23 09:00:00,59.1,53.6,29.85,SE,139,0.0,0.0,82,0.00,,,0.00,WeatherCatV2.41B14,2017-07-23 13:00:00,
2017-07-23 09:05:00,59.3,52.8,29.86,SE,139,0.0,0.0,79,0.00,,,0.00,WeatherCatV2.41B14,2017-07-23 13:05:00,
2017-07-23 09:10:00,59.8,52.6,29.85,East,101,0.0,1.0,77,0.00,,,0.00,WeatherCatV2.41B14,2017-07-23 13:10:00,
2017-07-23 09:15:00,60.3,53.1,29.85,SSW,197,2.0,2.0,77,0.00,,,0.00,WeatherCatV2.41B14,2017-07-23 13:15:00,
2017-07-23 09:20:00,61.0,53.0,29.85,South,186,0.0,1.0,75,0.00,,,0.00,WeatherCatV2.41B14,2017-07-23 13:20:00,
2017-07-23 09:25:00,61.5,53.5,29.85,South,186,0.0,0.0,75,0.00,,,0.00,WeatherCatV2.41B14,2017-07-23 13:25:00,
2017-07-23 09:30:00,62.1,54.4,29.85,South,186,0.0,1.0,76,0.00,,,0.00,WeatherCatV2.41B14,2017-07-23 13:30:00,
2017-07-23 09:35:00,62.6,53.1,29.85,South,191,0.0,1.0,71,0.00,,,0.00,WeatherCatV2.41B14,2017-07-23 13:35:00,
2017-07-23 09:40:00,62.9,53.0,29.85,South,190,0.0,1.0,70,0.00,,,0.00,WeatherCatV2.41B14,2017-07-23 13:40:00,
2017-07-23 09:45:00,63.2,52.8,29.85,South,190,0.0,2.0,69,0.00,,,0.00,WeatherCatV2.41B14,2017-07-23 13:45:00,
2017-07-23 09:50:00,63.5,55.1,29.85,South,190,0.0,0.0,74,0.00,,,0.00,WeatherCatV2.41B14,2017-07-23 13:50:00,
2017-07-23 09:55:00,63.9,55.1,29.85,South,190,0.0,0.0,73,0.00,,,0.00,WeatherCatV2.41B14,2017-07-23 13:55:00,
2017-07-23 10:00:00,64.7,53.9,29.85,South,188,0.0,2.0,68,0.00,,,0.00,WeatherCatV2.41B14,2017-07-23 14:00:00,
2017-07-23 10:05:00,65.6,53.1,29.86,South,175,0.0,1.0,64,0.00,,,0.00,WeatherCatV2.41B14,2017-07-23 14:05:00,
2017-07-23 10:10:00,66.4,53.8,29.86,South,175,0.0,0.0,64,0.00,,,0.00,WeatherCatV2.41B14,2017-07-23 14:10:00,
2017-07-23 10:15:00,67.2,55.9,29.85,South,175,0.0,0.0,67,0.00,,,0.00,WeatherCatV2.41B14,2017-07-23 14:15:00,
2017-07-23 10:20:00,67.8,53.8,29.86,South,184,0.0,2.0,61,0.00,,,0.00,WeatherCatV2.41B14,2017-07-23 14:20:00,
2017-07-23 10:25:00,68.4,55.7,29.85,South,184,0.0,2.0,64,0.00,,,0.00,WeatherCatV2.41B14,2017-07-23 14:25:00,
2017-07-23 10:30:00,69.0,55.4,29.86,South,185,0.0,0.0,62,0.00,,,0.00,WeatherCatV2.41B14,2017-07-23 14:30:00,
2017-07-23 10:35:00,69.8,57.9,29.85,South,184,0.0,0.0,66,0.00,,,0.00,WeatherCatV2.41B14,2017-07-23 14:35:00,
2017-07-23 10:40:00,70.1,55.6,29.85,South,185,0.0,1.0,60,0.00,,,0.00,WeatherCatV2.41B14,2017-07-23 14:40:00,
2017-07-23 10:45:00,69.9,54.0,29.85,South,173,0.0,0.0,57,0.00,,,0.00,WeatherCatV2.41B14,2017-07-23 14:45:00,
2017-07-23 10:50:00,69.7,53.3,29.85,South,174,0.0,1.0,56,0.00,,,0.00,WeatherCatV2.41B14,2017-07-23 14:50:00,
2017-07-23 10:55:00,69.5,55.5,29.85,South,173,0.0,1.0,61,0.00,,,0.00,WeatherCatV2.41B14,2017-07-23 14:55:00,
2017-07-23 11:00:00,69.6,54.2,29.85,South,174,1.0,1.0,58,0.00,,,0.00,WeatherCatV2.41B14,2017-07-23 15:00:00,
2017-07-23 11:05:00,69.5,55.9,29.85,South,175,0.0,0.0,62,0.00,,,0.00,WeatherCatV2.41B14,2017-07-23 15:05:00,
2017-07-23 11:10:00,69.5,54.1,29.85,South,178,0.0,2.0,58,0.00,,,0.00,WeatherCatV2.41B14,2017-07-23 15:10:00,
2017-07-23 11:15:00,69.4,53.0,29.85,South,179,1.0,2.0,56,0.00,,,0.00,WeatherCatV2.41B14,2017-07-23 15:15:00,
2017-07-23 11:20:00,69.4,54.4,29.85,South,179,0.0,2.0,59,0.00,,,0.00,WeatherCatV2.41B14,2017-07-23 15:20:00,
2017-07-23 11:25:00,69.4,54.4,29.84,South,178,0.0,0.0,59,0.00,,,0.00,WeatherCatV2.41B14,2017-07-23 15:25:00,
2017-07-23 11:30:00,69.5,55.0,29.84,South,178,0.0,1.0,60,0.00,,,0.00,WeatherCatV2.41B14,2017-07-23 15:30:00,
2017-07-23 11:35:00,69.6,55.5,29.84,WSW,253,0.0,1.0,61,0.00,,,0.00,WeatherCatV2.41B14,2017-07-23 15:35:00,
2017-07-23 11:40:00,69.8,54.3,29.84,WNW,297,0.0,0.0,58,0.00,,,0.00,WeatherCatV2.41B14,2017-07-23 15:40:00,
2017-07-23 11:45:00,69.8,54.3,29.84,WNW,297,0.0,0.0,58,0.00,,,0.00,WeatherCatV2.41B14,2017-07-23 15:45:00,
2017-07-23 11:50:00,69.8,56.2,29.84,WNW,296,0.0,0.0,62,0.00,,,0.00,WeatherCatV2.41B14,2017-07-23 15:50:00,
2017-07-23 11:55:00,69.9,53.5,29.84,SSW,194,0.0,1.0,56,0.00,,,0.00,WeatherCatV2.41B14,2017-07-23 15:55:00,
2017-07-23 12:00:00,70.2,55.2,29.84,SSW,195,0.0,0.0,59,0.00,,,0.00,WeatherCatV2.41B14,2017-07-23 16:00:00,
2017-07-23 12:05:00,70.2,57.0,29.84,SSW,195,0.0,1.0,63,0.00,,,0.00,WeatherCatV2.41B14,2017-07-23 16:05:00,
2017-07-23 12:10:00,70.3,54.8,29.84,SSW,195,0.0,1.0,58,0.00,,,0.00,WeatherCatV2.41B14,2017-07-23 16:10:00,
2017-07-23 12:11:00,70.3,57.1,29.84,SSW,195,0.0,1.0,63,0.00,,,0.00,WeatherCatV2.41B14,2017-07-23 16:11:00,
2017-07-23 12:16:00,70.5,55.9,29.84,SSW,195,0.0,0.0,60,0.00,,,0.00,WeatherCatV2.41B14,2017-07-23 16:16:00,
2017-07-23 12:21:00,70.9,58.1,29.84,SSW,194,0.0,0.0,64,0.00,,,0.00,WeatherCatV2.41B14,2017-07-23 16:21:00,
2017-07-23 12:26:00,71.6,59.2,29.84,SSW,207,0.0,4.0,65,0.00,,,0.00,WeatherCatV2.41B14,2017-07-23 16:26:00,
2017-07-23 12:31:00,71.9,55.3,29.84,SSW,207,0.0,2.0,56,0.00,,,0.00,WeatherCatV2.41B14,2017-07-23 16:31:00,
2017-07-23 12:36:00,72.0,54.4,29.84,SSW,207,0.0,0.0,54,0.00,,,0.00,WeatherCatV2.41B14,2017-07-23 16:36:00,
2017-07-23 12:41:00,72.2,55.6,29.84,SSW,207,0.0,1.0,56,0.00,,,0.00,WeatherCatV2.41B14,2017-07-23 16:41:00,
2017-07-23 12:46:00,72.3,55.7,29.84,SSW,206,0.0,1.0,56,0.00,,,0.00,WeatherCatV2.41B14,2017-07-23 16:46:00,
2017-07-23 12:51:00,72.4,56.8,29.84,SSW,206,0.0,2.0,58,0.00,,,0.00,WeatherCatV2.41B14,2017-07-23 16:51:00,
2017-07-23 12:56:00,73.0,57.8,29.84,SSW,207,0.0,0.0,59,0.00,,,0.00,WeatherCatV2.41B14,2017-07-23 16:56:00,
2017-07-23 13:01:00,73.8,60.4,29.84,SSW,209,0.0,2.0,63,0.00,,,0.00,WeatherCatV2.41B14,2017-07-23 17:01:00,
2017-07-23 13:06:00,74.4,56.1,29.84,South,172,0.0,1.0,53,0.00,,,0.00,WeatherCatV2.41B14,2017-07-23 17:06:00,
2017-07-23 13:11:00,75.0,55.1,29.84,ESE,113,0.0,3.0,50,0.00,,,0.00,WeatherCatV2.41B14,2017-07-23 17:11:00,
2017-07-23 13:16:00,75.2,57.4,29.83,ESE,113,0.0,0.0,54,0.00,,,0.00,WeatherCatV2.41B14,2017-07-23 17:16:00,
2017-07-23 13:21:00,75.3,58.0,29.84,ESE,113,0.0,2.0,55,0.00,,,0.00,WeatherCatV2.41B14,2017-07-23 17:21:00,
2017-07-23 13:26:00,75.6,58.8,29.83,ESE,113,1.0,2.0,56,0.00,,,0.00,WeatherCatV2.41B14,2017-07-23 17:26:00,